createdAt,value
2022-07-29T00:02:37.687Z,96902.03
2022-07-29T00:06:34.701Z,96881.06
2022-07-29T00:10:31.754Z,96877.56
2022-07-29T00:14:30.021Z,96865.78
2022-07-29T00:18:27.080Z,96868.88
2022-07-29T00:22:27.318Z,96875.75
2022-07-29T00:26:24.330Z,96883.25
2022-07-29T00:30:21.450Z,96848.72
2022-07-29T00:34:37.633Z,96847.91
2022-07-29T00:38:34.660Z,96814.47
2022-07-29T00:42:31.687Z,96858.28
2022-07-29T00:46:28.678Z,96844.72
2022-07-29T00:50:26.306Z,96874.88
2022-07-29T00:54:23.306Z,96845.31
2022-07-29T00:58:20.518Z,96845.81
2022-07-29T01:02:17.612Z,96843.91
2022-07-29T01:06:17.592Z,96829.94
2022-07-29T01:10:17.700Z,96848.13
2022-07-29T01:14:18.619Z,96819.16
2022-07-29T01:18:39.025Z,96814.09
2022-07-29T01:22:36.081Z,96847.50
2022-07-29T01:26:59.980Z,96859.69
2022-07-29T01:30:58.147Z,96828.56
2022-07-29T01:35:07.398Z,96847.91
2022-07-29T01:39:24.069Z,96840.31
2022-07-29T01:43:32.246Z,96789.84
2022-07-29T01:48:01.377Z,96797.81
2022-07-29T01:52:12.524Z,96774.47
2022-07-29T01:56:12.689Z,96816.25
2022-07-29T02:00:11.831Z,96817.44
2022-07-29T02:04:29.623Z,96781.28
2022-07-29T02:08:30.576Z,96790.16
2022-07-29T02:12:32.154Z,96777.75
2022-07-29T02:16:33.266Z,96747.47
2022-07-29T02:20:32.818Z,96794.97
2022-07-29T02:24:32.163Z,96770.88
2022-07-29T02:28:31.896Z,96822.44
2022-07-29T02:32:31.128Z,96786.59
2022-07-29T02:36:30.364Z,96766.63
2022-07-29T02:40:27.816Z,96780.41
2022-07-29T02:44:31.366Z,96808.53
2022-07-29T02:48:59.722Z,96820.19
2022-07-29T02:53:08.574Z,96786.44
2022-07-29T02:57:18.231Z,96751.56
2022-07-29T03:01:30.053Z,96801.88
2022-07-29T03:05:28.522Z,96807.44
2022-07-29T03:09:27.586Z,96792.38
2022-07-29T03:13:26.665Z,96777.47
2022-07-29T03:17:24.737Z,96803.19
2022-07-29T03:21:21.889Z,96820.81
2022-07-29T03:25:21.013Z,96831.56
2022-07-29T03:29:18.078Z,96817.16
2022-07-29T03:33:17.414Z,96810.72
2022-07-29T03:37:14.375Z,96827.94
2022-07-29T03:41:15.664Z,96824.66
2022-07-29T03:45:19.121Z,96810.56
2022-07-29T03:49:18.171Z,96824.81
2022-07-29T03:53:15.543Z,96818.31
2022-07-29T03:57:14.590Z,96828.47
2022-07-29T04:01:12.821Z,96847.72
2022-07-29T04:05:14.796Z,96835.84
2022-07-29T04:09:13.113Z,96828.19
2022-07-29T04:13:10.158Z,96812.81
2022-07-29T04:17:07.218Z,96813.41
2022-07-29T04:21:05.124Z,96798.19
2022-07-29T04:25:04.186Z,96801.16
2022-07-29T04:29:02.138Z,96825.94
2022-07-29T04:33:01.836Z,96808.16
2022-07-29T04:36:59.008Z,96813.09
2022-07-29T04:40:55.966Z,96822.72
2022-07-29T04:44:53.279Z,96808.34
2022-07-29T04:48:50.459Z,96846.44
2022-07-29T04:52:47.552Z,96827.25
2022-07-29T04:56:44.667Z,96840.84
2022-07-29T05:00:42.269Z,96824.91
2022-07-29T05:04:39.292Z,96840.41
2022-07-29T05:08:36.250Z,96852.91
2022-07-29T05:12:33.367Z,96822.97
2022-07-29T05:16:32.007Z,96845.31
2022-07-29T05:20:30.595Z,96851.63
2022-07-29T05:24:27.551Z,96834.53
2022-07-29T05:28:24.568Z,96843.91
2022-07-29T05:32:21.848Z,96852.25
2022-07-29T05:36:19.316Z,96855.66
2022-07-29T05:40:16.346Z,96853.41
2022-07-29T05:44:14.759Z,96832.19
2022-07-29T05:48:12.173Z,96840.31
2022-07-29T05:52:10.562Z,96855.00
2022-07-29T05:56:08.354Z,96854.53
2022-07-29T06:00:06.337Z,96844.84
2022-07-29T06:04:09.360Z,96864.72
2022-07-29T06:08:09.505Z,96868.16
2022-07-29T06:12:06.695Z,96859.31
2022-07-29T06:16:03.996Z,96851.53
2022-07-29T06:20:01.220Z,96841.16
2022-07-29T06:23:58.187Z,96855.97
2022-07-29T06:27:55.293Z,96871.03
2022-07-29T06:31:52.433Z,96839.66
2022-07-29T06:35:50.333Z,96849.56
2022-07-29T06:40:10.657Z,96865.19
2022-07-29T06:44:07.816Z,96872.63
2022-07-29T06:48:05.425Z,96851.22
2022-07-29T06:52:03.267Z,96846.31
2022-07-29T06:56:02.089Z,96873.31
2022-07-29T06:59:59.089Z,96873.75
2022-07-29T07:03:56.216Z,96885.59
2022-07-29T07:07:53.217Z,96874.47
2022-07-29T07:11:52.429Z,96852.44
2022-07-29T07:15:52.878Z,96879.47
2022-07-29T07:19:49.864Z,96871.28
2022-07-29T07:23:47.755Z,96878.50
2022-07-29T07:27:46.957Z,96878.06
2022-07-29T07:31:44.056Z,96867.53
2022-07-29T07:35:43.267Z,96862.31
2022-07-29T07:39:40.409Z,96862.28
2022-07-29T07:43:37.472Z,96857.84
2022-07-29T07:47:34.621Z,96861.69
2022-07-29T07:51:31.706Z,96877.34
2022-07-29T07:55:29.504Z,96837.59
2022-07-29T07:59:30.101Z,96861.56
2022-07-29T08:03:27.095Z,96857.38
2022-07-29T08:07:24.732Z,96859.88
2022-07-29T08:11:22.069Z,96861.72
2022-07-29T08:15:19.056Z,96846.59
2022-07-29T08:19:16.386Z,96850.34
2022-07-29T08:23:13.478Z,96853.59
2022-07-29T08:27:33.543Z,96871.47
2022-07-29T08:31:29.222Z,96873.91
2022-07-29T08:35:27.039Z,96864.06
2022-07-29T08:39:25.899Z,96862.09
2022-07-29T08:43:23.242Z,96861.66
2022-07-29T08:47:20.228Z,96867.94
2022-07-29T08:51:20.357Z,96881.00
2022-07-29T08:55:21.436Z,96882.84
2022-07-29T08:59:22.187Z,96872.16
2022-07-29T09:03:23.957Z,96874.31
2022-07-29T09:07:21.043Z,96853.63
2022-07-29T09:11:18.332Z,96846.47
2022-07-29T09:15:15.739Z,96862.81
2022-07-29T09:19:29.936Z,96866.19
2022-07-29T09:23:26.923Z,96866.97
2022-07-29T09:27:27.667Z,96878.91
2022-07-29T09:31:36.362Z,96861.50
2022-07-29T09:35:36.682Z,96838.66
2022-07-29T09:39:46.773Z,96861.19
2022-07-29T09:43:58.468Z,96846.06
2022-07-29T09:47:56.786Z,96830.06
2022-07-29T09:52:09.622Z,96840.00
2022-07-29T09:56:07.237Z,96837.31
2022-07-29T10:00:16.036Z,96830.44
2022-07-29T10:04:13.389Z,96813.59
2022-07-29T10:08:13.501Z,96807.94
2022-07-29T10:12:15.491Z,96821.34
2022-07-29T10:16:14.852Z,96823.16
2022-07-29T10:20:16.293Z,96827.22
2022-07-29T10:24:14.609Z,96829.47
2022-07-29T10:28:16.264Z,96822.81
2022-07-29T10:32:41.481Z,96814.88
2022-07-29T10:37:19.572Z,96809.09
2022-07-29T10:41:59.376Z,96798.44
2022-07-29T10:46:00.371Z,96790.66
2022-07-29T10:50:03.919Z,96802.53
2022-07-29T10:54:05.968Z,96788.66
2022-07-29T10:58:19.463Z,96802.50
2022-07-29T11:02:42.505Z,96793.41
2022-07-29T11:06:59.673Z,96777.22
2022-07-29T11:11:29.738Z,96774.84
2022-07-29T11:15:28.781Z,96770.41
2022-07-29T11:19:30.534Z,96778.19
2022-07-29T11:23:34.851Z,96753.44
2022-07-29T11:27:40.641Z,96775.25
2022-07-29T11:31:44.353Z,96766.72
2022-07-29T11:35:41.524Z,96758.03
2022-07-29T11:39:43.517Z,96745.03
2022-07-29T11:43:59.230Z,96737.13
2022-07-29T11:48:32.137Z,96763.88
2022-07-29T11:52:21.484Z,96757.66
2022-07-29T11:56:25.688Z,96754.63
2022-07-29T12:00:30.801Z,96749.97
2022-07-29T12:04:28.401Z,96728.13
2022-07-29T12:08:27.013Z,96709.41
2022-07-29T12:12:25.056Z,96735.41
2022-07-29T12:16:27.948Z,96739.50
2022-07-29T12:20:30.410Z,96730.03
2022-07-29T12:30:05.492Z,96718.31
2022-07-29T12:34:03.187Z,96699.63
2022-07-29T12:38:00.281Z,96695.72
2022-07-29T12:42:03.842Z,96713.03
2022-07-29T12:46:15.794Z,96708.72
2022-07-29T12:50:22.110Z,96706.13
2022-07-29T12:54:21.572Z,96694.97
2022-07-29T12:58:30.869Z,96702.63
2022-07-29T13:02:28.093Z,96668.00
2022-07-29T13:06:45.809Z,96684.78
2022-07-29T13:10:47.751Z,96672.94
2022-07-29T13:14:50.974Z,96680.31
2022-07-29T13:18:47.969Z,96684.75
2022-07-29T13:22:49.447Z,96697.75
2022-07-29T13:26:46.485Z,96698.81
2022-07-29T13:30:44.909Z,96666.09
2022-07-29T13:34:45.038Z,96711.03
2022-07-29T13:38:42.067Z,96757.84
2022-07-29T13:42:39.371Z,96719.75
2022-07-29T13:46:36.374Z,96784.59
2022-07-29T13:50:37.796Z,96776.81
2022-07-29T13:54:42.157Z,96817.88
2022-07-29T13:58:39.623Z,96818.13
2022-07-29T14:02:36.654Z,96780.91
2022-07-29T14:06:33.814Z,96787.59
2022-07-29T14:10:31.674Z,96786.69
2022-07-29T14:14:28.721Z,96784.94
2022-07-29T14:18:26.089Z,96776.44
2022-07-29T14:22:25.482Z,96785.66
2022-07-29T14:26:24.274Z,96788.25
2022-07-29T14:30:21.792Z,96765.69
2022-07-29T14:34:19.028Z,96758.09
2022-07-29T14:38:16.120Z,96744.84
2022-07-29T14:42:14.193Z,96785.19
2022-07-29T14:46:11.292Z,96782.53
2022-07-29T14:50:09.953Z,96787.63
2022-07-29T14:54:07.534Z,96768.47
2022-07-29T14:58:10.957Z,96772.38
2022-07-29T15:02:10.357Z,96766.28
2022-07-29T15:06:07.445Z,96774.56
2022-07-29T15:10:05.328Z,96769.94
2022-07-29T15:14:05.741Z,96784.59
2022-07-29T15:18:02.849Z,96789.00
2022-07-29T15:22:00.267Z,96769.97
2022-07-29T15:25:58.170Z,96781.38
2022-07-29T15:29:55.135Z,96799.06
2022-07-29T15:33:56.974Z,96784.13
2022-07-29T15:37:55.412Z,96789.09
2022-07-29T15:41:52.637Z,96784.94
2022-07-29T15:46:09.204Z,96793.03
2022-07-29T15:50:07.725Z,96796.44
2022-07-29T15:54:05.495Z,96799.41
2022-07-29T15:58:02.444Z,96804.34
2022-07-29T16:02:01.120Z,96810.13
2022-07-29T16:05:58.058Z,96789.19
2022-07-29T16:09:55.065Z,96797.03
2022-07-29T16:13:52.219Z,96808.03
2022-07-29T16:17:50.626Z,96803.56
2022-07-29T16:21:48.425Z,96793.06
2022-07-29T16:26:01.478Z,96776.66
2022-07-29T16:29:58.812Z,96783.94
2022-07-29T16:33:58.619Z,96801.91
2022-07-29T16:37:55.678Z,96803.97
2022-07-29T16:41:54.913Z,96809.19
2022-07-29T16:45:54.037Z,96811.47
2022-07-29T16:49:52.798Z,96799.13
2022-07-29T16:53:50.408Z,96814.84
2022-07-29T16:57:47.700Z,96793.03
2022-07-29T17:01:44.810Z,96839.06
2022-07-29T17:05:52.774Z,96871.09
2022-07-29T17:09:55.365Z,96896.31
2022-07-29T17:13:52.959Z,96876.25
2022-07-29T17:17:56.505Z,96869.22
2022-07-29T17:22:01.012Z,96864.03
2022-07-29T17:26:02.414Z,96874.78
2022-07-29T17:29:59.652Z,96926.75
2022-07-29T17:33:59.902Z,96941.63
2022-07-29T17:37:57.882Z,96933.97
2022-07-29T17:41:54.825Z,96895.41
2022-07-29T17:45:52.727Z,96924.75
2022-07-29T17:49:50.130Z,96923.59
2022-07-29T17:53:47.088Z,96914.22
2022-07-29T17:57:44.064Z,96913.50
2022-07-29T18:01:43.803Z,96916.19
2022-07-29T18:05:41.732Z,96930.78
2022-07-29T18:09:38.880Z,96930.78
2022-07-29T18:13:35.888Z,96924.69
2022-07-29T18:17:48.378Z,96931.19
2022-07-29T18:21:53.453Z,96929.59
2022-07-29T18:25:52.384Z,96918.50
2022-07-29T18:29:51.265Z,96903.34
2022-07-29T18:33:48.575Z,96901.81
2022-07-29T18:38:01.058Z,96897.22
2022-07-29T18:41:59.676Z,96891.63
2022-07-29T18:45:56.672Z,96870.06
2022-07-29T18:49:54.281Z,96879.88
2022-07-29T18:53:51.832Z,96873.31
2022-07-29T18:57:55.522Z,96879.50
2022-07-29T19:01:54.470Z,96865.34
2022-07-29T19:05:51.858Z,96871.53
2022-07-29T19:09:49.338Z,96865.91
2022-07-29T19:13:46.799Z,96849.16
2022-07-29T19:17:43.863Z,96871.97
2022-07-29T19:21:41.520Z,96843.78
2022-07-29T19:25:53.114Z,96891.66
2022-07-29T19:29:50.854Z,96909.03
2022-07-29T19:33:47.868Z,96879.69
2022-07-29T19:37:44.889Z,96916.88
2022-07-29T19:41:41.922Z,96919.66
2022-07-29T19:45:39.106Z,96873.88
2022-07-29T19:49:37.798Z,96918.00
2022-07-29T19:53:34.776Z,96942.09
2022-07-29T19:57:40.770Z,96933.03
2022-07-29T20:01:38.415Z,96902.91
2022-07-29T20:05:35.476Z,96921.56
2022-07-29T20:09:32.560Z,96924.91
2022-07-29T20:13:31.781Z,96910.47
2022-07-29T20:17:29.052Z,96915.59
2022-07-29T20:21:26.894Z,96917.53
2022-07-29T20:25:24.355Z,96927.84
2022-07-29T20:29:21.932Z,96934.44
2022-07-29T20:33:19.249Z,96941.28
2022-07-29T20:37:18.650Z,96959.63
2022-07-29T20:41:15.809Z,96975.53
2022-07-29T20:45:14.039Z,96979.06
2022-07-29T20:49:11.940Z,97001.00
2022-07-29T20:53:09.635Z,96978.91
2022-07-29T20:57:06.887Z,97001.75
2022-07-29T21:01:05.039Z,96995.63
2022-07-29T21:05:02.101Z,97005.69
2022-07-29T21:09:01.192Z,97001.38
2022-07-29T21:12:58.707Z,96979.50
2022-07-29T21:16:55.824Z,96985.25
2022-07-29T21:20:58.092Z,96985.69
2022-07-29T21:24:55.307Z,96982.69
2022-07-29T21:28:52.404Z,96987.44
2022-07-29T21:32:49.503Z,96984.66
2022-07-29T21:36:48.684Z,96990.47
2022-07-29T21:40:48.935Z,96991.88
2022-07-29T21:44:46.047Z,96971.59
2022-07-29T21:48:44.639Z,96979.66
2022-07-29T21:52:41.839Z,96974.59
2022-07-29T21:56:38.810Z,96980.31
2022-07-29T22:00:35.851Z,96967.72
2022-07-29T22:04:34.164Z,96986.78
2022-07-29T22:08:31.340Z,96972.81
2022-07-29T22:12:28.359Z,96962.25
2022-07-29T22:16:25.986Z,96991.66
2022-07-29T22:20:24.240Z,96976.25
2022-07-29T22:24:21.289Z,96960.06
2022-07-29T22:28:18.287Z,96962.25
2022-07-29T22:32:15.268Z,96956.38
2022-07-29T22:36:12.276Z,96967.13
2022-07-29T22:40:09.796Z,96971.28
2022-07-29T22:44:06.754Z,96950.47
2022-07-29T22:48:04.409Z,96964.56
2022-07-29T22:52:01.434Z,96939.75
2022-07-29T22:55:58.461Z,96962.75
2022-07-29T22:59:55.445Z,96950.81
2022-07-29T23:03:52.442Z,96954.88
2022-07-29T23:07:49.472Z,96947.38
2022-07-29T23:11:47.221Z,96956.34
2022-07-29T23:15:44.626Z,96953.72
2022-07-29T23:19:41.613Z,96953.72
2022-07-29T23:23:38.736Z,96953.59
2022-07-29T23:27:36.429Z,96951.41
2022-07-29T23:31:33.431Z,96954.94
2022-07-29T23:35:39.045Z,96942.16
2022-07-29T23:39:36.089Z,96933.34
2022-07-29T23:43:33.028Z,96925.78
2022-07-29T23:47:30.118Z,96921.41
2022-07-29T23:51:29.186Z,96920.31
2022-07-29T23:55:36.331Z,96925.34
2022-07-29T23:59:36.149Z,96913.56
